METAR Data
IDs: Format: Raw Decoded Include TAF

Data at: 1715 UTC 21 Sep 2018

KCRS 211653Z AUTO 17009KT 8SM -RA SCT022 BKN090 BKN110 28/25 A2999 RMK AO2 RAB44 SLP151 P0000 T02780250
KCRS 211618Z AUTO 15013KT 10SM BKN015 BKN034 BKN120 28/25 A3000 RMK AO2 T02830250
KCRS 211553Z AUTO 17012KT 10SM BKN013 BKN018 OVC110 27/25 A3000 RMK AO2 SLP154 T02720250
KCRS 211518Z AUTO 16012KT 10SM BKN011 OVC014 27/25 A2999 RMK AO2 CIG 008V012 T02670250
KCRS 211453Z AUTO 16010KT 10SM OVC009 27/25 A2998 RMK AO2 CIG 007V011 SLP148 60000 T02670250 53007
KCRS 211353Z AUTO 15008KT 10SM BKN006 OVC010 26/24 A2998 RMK AO2 RAB31E48 CIG 006V009 SLP146 P0000 T02560244
KCRS 211253Z AUTO 14006KT 10SM OVC008 25/24 A2997 RMK AO2 CIG 005V009 SLP144 T02500244
KCRS 211237Z AUTO 14006KT 9SM BKN009 BKN110 25/24 A2997 RMK AO2 T02500244
KCRS 211222Z AUTO 13005KT 10SM FEW009 SCT110 25/24 A2997 RMK AO2 T02500244
KCRS 211153Z AUTO 15005KT 10SM FEW013 SCT110 25/24 A2996 RMK AO2 SLP141 60000 70001 T02500239 10250 20244 53003
KCRS 211053Z AUTO 16007KT 10SM OVC100 25/24 A2995 RMK AO2 SLP138 T02500239
KCRS 210953Z AUTO 17007KT 10SM OVC095 25/24 A2995 RMK AO2 SLP136 T02500239
KCRS 210853Z AUTO 17005KT 10SM OVC090 24/23 A2995 RMK AO2 SLP137 60000 T02440233 55004
KCRS 210753Z AUTO 17006KT 10SM OVC090 24/23 A2995 RMK AO2 SLP137 T02440228
KCRS 210653Z AUTO 17007KT 10SM OVC090 24/23 A2996 RMK AO2 RAE0559 SLP139 P0000 T02440228
KCRS 210553Z AUTO 13005KT 10SM -RA FEW060 BKN090 24/23 A2997 RMK AO2 RAB37 SLP141 P0001 60001 T02440233 10250 20239 403280228 58004
KCRS 210453Z AUTO 14004KT 10SM FEW065 FEW075 BKN090 24/23 A2998 RMK AO2 RAB35E51 SLP145 P0000 T02390228
KCRS 210353Z AUTO 18006KT 10SM BKN095 24/22 A2998 RMK AO2 SLP148 T02440222
KCRS 210253Z AUTO 18005KT 10SM CLR 24/23 A2998 RMK AO2 SLP146 T02440228 53020
KCRS 210153Z AUTO 16009KT 10SM SCT095 25/22 A2995 RMK AO2 SLP136 T02500222
KCRS 210053Z AUTO 16005KT 10SM FEW110 24/22 A2994 RMK AO2 SLP132 T02440222
KCRS 202353Z AUTO 17006KT 10SM FEW110 25/22 A2992 RMK AO2 PK WND 17029/2254 WSHFT 2249 LTG DSNT N AND NE RAB2259E21 TSE24 SLP126 P0000 60000 T02500222 10328 20239 50002
KCRS 202330Z AUTO 14008KT 10SM VCTS SCT035 SCT085 BKN110 24/22 A2992 RMK AO2 PK WND 17029/2254 WSHFT 2249 LTG DSNT N-E RAB2259E21 TSE24 P0000 T02440222
KCRS 202309Z AUTO 12010KT 10SM -TSRA SCT038 BKN060 BKN090 24/22 A2994 RMK AO2 PK WND 17029/2254 WSHFT 2249 LTG DSNT ALQDS RAB2259 P0000 T02390217
KCRS 202253Z AUTO 16020G26KT 10SM TS SCT035 28/21 A2993 RMK AO2 PK WND 16026/2253 LTG DSNT ALQDS RAB17E37 TSB47 PRESRR SLP131 P0000 T02780211
KCRS 202240Z AUTO 18009KT 10SM VCTS FEW037 FEW044 SCT065 30/23 A2991 RMK AO2 LTG DSNT SE AND S AND NW RAB17E37 P0000 T03000228
KCRS 202231Z AUTO 18009KT 10SM -RA FEW038 FEW044 SCT070 30/23 A2990 RMK AO2 LTG DSNT SE AND S AND NW RAB17 P0000 T03000228
KCRS 202216Z AUTO 15008KT 10SM VCTS FEW039 31/22 A2990 RMK AO2 LTG DSNT SE AND S AND NW T03060222
KCRS 202153Z AUTO 13007KT 10SM CLR 31/22 A2991 RMK AO2 LTG DSNT S SLP121 T03060222
KCRS 202053Z AUTO 12011KT 10SM CLR 32/23 A2991 RMK AO2 WSHFT 2026 LTG DSNT N SLP123 T03170228 56022
KCRS 202046Z AUTO 11010KT 10SM FEW055 32/23 A2991 RMK AO2 WSHFT 2026 LTG DSNT N AND S T03170228
KCRS 201953Z AUTO VRB04KT 10SM SCT047 32/22 A2993 RMK AO2 SLP128 T03220217
KCRS 201853Z AUTO 12007KT 10SM BKN043 OVC055 31/22 A2995 RMK AO2 SLP137 T03060217
KCRS 201753Z AUTO 20007KT 160V230 10SM BKN038 BKN048 31/22 A2998 RMK AO2 SLP145 T03060222 10311 20239 58008
KCRS 201653Z AUTO 15008KT 10SM SCT028 30/23 A3001 RMK AO2 SLP155 T03000228
KCRS 201611Z AUTO 19008KT 10SM FEW018 SCT025 29/24 A3001 RMK AO2 T02890239
KCRS 201553Z AUTO 17009KT 10SM SCT016 BKN025 28/24 A3002 RMK AO2 SLP158 T02830239
KCRS 201526Z AUTO 16008KT 10SM SCT013 BKN022 27/24 A3001 RMK AO2 T02720239
KCRS 201502Z AUTO 17007KT 10SM BKN011 27/24 A3001 RMK AO2 T02670239
KCRS 201453Z AUTO 16008KT 10SM SCT009 BKN015 26/24 A3000 RMK AO2 SLP154 T02610239 51015
KCRS 201400Z AUTO 17006KT 10SM BKN008 OVC012 25/24 A2999 RMK AO2 T02500239
KCRS 201353Z AUTO 16005KT 10SM OVC010 25/23 A2999 RMK AO2 CIG 007V014 SLP149 T02500233
KCRS 201253Z AUTO 16004KT 10SM BKN012 24/23 A2998 RMK AO2 SLP146 T02390228
KCRS 201237Z AUTO 16004KT 10SM BKN013 23/23 A2998 RMK AO2 T02330228
KCRS 201153Z AUTO 18005KT 10SM CLR 23/22 A2996 RMK AO2 SLP139 T02330222 10261 20233 53007
KCRS 201053Z AUTO 16005KT 10SM CLR 23/22 A2995 RMK AO2 SLP135 T02330222
KCRS 200953Z AUTO 19005KT 10SM CLR 24/22 A2994 RMK AO2 SLP131 T02390222
KCRS 200853Z AUTO 18006KT 10SM CLR 25/22 A2994 RMK AO2 SLP132 T02500222 58010
KCRS 200753Z AUTO 17007KT 10SM CLR 26/23 A2996 RMK AO2 SLP137 T02560228
KCRS 200653Z AUTO 15005KT 10SM CLR 26/23 A2996 RMK AO2 SLP139 T02610228
KCRS 200553Z AUTO 12005KT 10SM CLR 26/22 A2997 RMK AO2 SLP142 T02560222 10317 20256 403500233 51014